createdAt,value
2019-03-10T00:00:21.386Z,1008.85
2019-03-10T00:01:21.410Z,1008.86
2019-03-10T00:02:21.400Z,1008.81
2019-03-10T00:03:21.349Z,1008.76
2019-03-10T00:04:21.346Z,1008.74
2019-03-10T00:05:21.338Z,1008.75
2019-03-10T00:06:21.316Z,1008.74
2019-03-10T00:07:21.318Z,1008.78
2019-03-10T00:08:21.323Z,1008.76
2019-03-10T00:09:21.305Z,1008.75
2019-03-10T00:10:21.265Z,1008.78
2019-03-10T00:11:21.279Z,1008.77
2019-03-10T00:12:21.273Z,1008.73
2019-03-10T00:13:21.285Z,1008.72
2019-03-10T00:14:21.258Z,1008.71
2019-03-10T00:15:21.235Z,1008.69
2019-03-10T00:16:21.204Z,1008.70
2019-03-10T00:17:21.217Z,1008.63
2019-03-10T00:18:21.298Z,1008.65
2019-03-10T00:19:21.222Z,1008.61
2019-03-10T00:20:21.184Z,1008.55
2019-03-10T00:21:21.150Z,1008.62
2019-03-10T00:22:21.180Z,1008.61
2019-03-10T00:23:21.180Z,1008.58
2019-03-10T00:24:21.122Z,1008.57
2019-03-10T00:25:21.127Z,1008.58
2019-03-10T00:26:21.222Z,1008.54
2019-03-10T00:27:21.092Z,1008.52
2019-03-10T00:28:21.098Z,1008.47
2019-03-10T00:29:21.080Z,1008.45
2019-03-10T00:30:21.066Z,1008.48
2019-03-10T00:31:21.039Z,1008.51
2019-03-10T00:32:21.026Z,1008.47
2019-03-10T00:33:21.042Z,1008.50
2019-03-10T00:34:21.053Z,1008.45
2019-03-10T00:35:20.996Z,1008.43
2019-03-10T00:36:20.977Z,1008.37
2019-03-10T00:37:20.984Z,1008.37
2019-03-10T00:38:20.985Z,1008.38
2019-03-10T00:39:20.952Z,1008.43
2019-03-10T00:40:20.939Z,1008.41
2019-03-10T00:41:20.930Z,1008.48
2019-03-10T00:42:20.932Z,1008.41
2019-03-10T00:43:20.948Z,1008.41
2019-03-10T00:44:20.894Z,1008.44
2019-03-10T00:45:20.882Z,1008.42
2019-03-10T00:46:20.873Z,1008.36
2019-03-10T00:47:20.865Z,1008.37
2019-03-10T00:48:20.926Z,1008.37
2019-03-10T00:49:20.888Z,1008.30
2019-03-10T00:50:20.827Z,1008.26
2019-03-10T00:51:20.823Z,1008.28
2019-03-10T00:52:20.820Z,1008.24
2019-03-10T00:53:20.793Z,1008.26
2019-03-10T00:54:20.862Z,1008.21
2019-03-10T00:55:20.788Z,1008.21
2019-03-10T00:56:20.790Z,1008.21
2019-03-10T00:57:20.755Z,1008.18
2019-03-10T00:58:20.740Z,1008.20
2019-03-10T00:59:20.731Z,1008.22
2019-03-10T01:00:20.744Z,1008.22
2019-03-10T01:01:20.703Z,1008.26
2019-03-10T01:02:20.733Z,1008.19
2019-03-10T01:03:20.725Z,1008.14
2019-03-10T01:04:20.673Z,1008.19
2019-03-10T01:05:20.690Z,1008.11
2019-03-10T01:06:20.648Z,1008.08
2019-03-10T01:07:20.636Z,1008.14
2019-03-10T01:08:20.655Z,1008.17
2019-03-10T01:09:20.650Z,1008.10
2019-03-10T01:10:20.663Z,1008.10
2019-03-10T01:11:20.595Z,1008.10
2019-03-10T01:12:20.589Z,1008.04
2019-03-10T01:13:20.573Z,1008.08
2019-03-10T01:14:20.588Z,1008.08
2019-03-10T01:15:20.585Z,1008.04
2019-03-10T01:16:20.585Z,1008.03
2019-03-10T01:17:20.528Z,1007.99
2019-03-10T01:18:20.516Z,1007.96
2019-03-10T01:19:20.510Z,1007.96
2019-03-10T01:20:20.537Z,1007.93
2019-03-10T01:21:20.486Z,1007.94
2019-03-10T01:22:20.522Z,1007.86
2019-03-10T01:23:20.490Z,1007.80
2019-03-10T01:24:20.460Z,1007.79
2019-03-10T01:25:20.488Z,1007.70
2019-03-10T01:26:20.433Z,1007.69
2019-03-10T01:27:20.428Z,1007.73
2019-03-10T01:28:20.413Z,1007.68
2019-03-10T01:29:20.429Z,1007.64
2019-03-10T01:30:20.429Z,1007.61
2019-03-10T01:31:20.385Z,1007.55
2019-03-10T01:32:20.364Z,1007.50
2019-03-10T01:33:20.356Z,1007.47
2019-03-10T01:34:20.350Z,1007.42
2019-03-10T01:35:20.357Z,1007.36
2019-03-10T01:36:20.361Z,1007.34
2019-03-10T01:37:20.310Z,1007.31
2019-03-10T01:38:20.299Z,1007.26
2019-03-10T01:39:20.291Z,1007.26
2019-03-10T01:40:20.316Z,1007.23
2019-03-10T01:41:20.268Z,1007.21
2019-03-10T01:42:20.267Z,1007.15
2019-03-10T01:43:20.247Z,1007.08
2019-03-10T01:44:20.233Z,1007.02
2019-03-10T01:45:20.222Z,1006.99
2019-03-10T01:46:20.238Z,1006.95
2019-03-10T01:47:20.247Z,1006.89
2019-03-10T01:48:20.206Z,1006.85
2019-03-10T01:49:20.256Z,1006.77
2019-03-10T01:50:20.168Z,1006.78
2019-03-10T01:51:20.190Z,1006.77
2019-03-10T01:52:20.159Z,1006.74
2019-03-10T01:53:25.527Z,1006.70
2019-03-10T01:54:21.237Z,1006.66
2019-03-10T01:55:20.126Z,1006.62
2019-03-10T01:56:20.382Z,1006.64
2019-03-10T01:57:20.180Z,1006.58
2019-03-10T01:58:20.107Z,1006.59
2019-03-10T01:59:20.079Z,1006.57
2019-03-10T02:00:20.058Z,1006.53
2019-03-10T02:01:20.078Z,1006.48
2019-03-10T02:02:25.805Z,1006.49
2019-03-10T02:03:21.033Z,1006.42
2019-03-10T02:04:20.048Z,1006.40
2019-03-10T02:05:20.007Z,1006.37
2019-03-10T02:06:20.022Z,1006.33
2019-03-10T02:07:20.008Z,1006.32
2019-03-10T02:08:19.970Z,1006.28
2019-03-10T02:09:20.004Z,1006.29
2019-03-10T02:10:19.948Z,1006.23
2019-03-10T02:11:19.944Z,1006.18
2019-03-10T02:12:19.985Z,1006.13
2019-03-10T02:13:19.915Z,1006.12
2019-03-10T02:14:19.905Z,1006.09
2019-03-10T02:15:19.898Z,1006.00
2019-03-10T02:16:19.887Z,1006.00
2019-03-10T02:17:19.889Z,1005.91
2019-03-10T02:18:19.888Z,1005.85
2019-03-10T02:19:19.854Z,1005.77
2019-03-10T02:20:19.853Z,1005.81
2019-03-10T02:21:19.853Z,1005.78
2019-03-10T02:22:19.818Z,1005.75
2019-03-10T02:23:19.841Z,1005.70
2019-03-10T02:24:23.647Z,1005.64
2019-03-10T02:25:19.786Z,1005.60
2019-03-10T02:26:19.772Z,1005.62
2019-03-10T02:27:19.770Z,1005.61
2019-03-10T02:28:19.834Z,1005.61
2019-03-10T02:29:19.794Z,1005.61
2019-03-10T02:30:19.766Z,1005.60
2019-03-10T02:31:19.726Z,1005.59
2019-03-10T02:32:19.797Z,1005.58
2019-03-10T02:33:19.724Z,1005.51
2019-03-10T02:34:19.690Z,1005.48
2019-03-10T02:35:19.704Z,1005.47
2019-03-10T02:36:19.666Z,1005.47
2019-03-10T02:37:19.661Z,1005.44
2019-03-10T02:38:19.788Z,1005.41
2019-03-10T02:39:19.632Z,1005.40
2019-03-10T02:40:19.641Z,1005.36
2019-03-10T02:41:19.608Z,1005.33
2019-03-10T02:42:19.597Z,1005.23
2019-03-10T02:43:19.664Z,1005.24
2019-03-10T02:44:19.584Z,1005.17
2019-03-10T02:45:19.576Z,1005.11
2019-03-10T02:46:19.556Z,1005.10
2019-03-10T02:47:19.544Z,1005.04
2019-03-10T02:48:19.560Z,1005.00
2019-03-10T02:49:19.548Z,1004.97
2019-03-10T02:50:19.525Z,1004.92
2019-03-10T02:51:19.501Z,1004.86
2019-03-10T02:52:19.489Z,1004.86
2019-03-10T02:53:19.511Z,1004.85
2019-03-10T02:54:19.467Z,1004.82
2019-03-10T02:55:19.476Z,1004.77
2019-03-10T02:56:19.450Z,1004.69
2019-03-10T02:57:19.439Z,1004.68
2019-03-10T02:58:19.424Z,1004.66
2019-03-10T02:59:19.465Z,1004.65
2019-03-10T03:00:19.396Z,1004.62
2019-03-10T03:01:19.408Z,1004.60
2019-03-10T03:02:19.383Z,1004.61
2019-03-10T03:03:19.372Z,1004.58
2019-03-10T03:04:19.396Z,1004.59
2019-03-10T03:05:19.349Z,1004.55
2019-03-10T03:06:19.331Z,1004.53
2019-03-10T03:07:19.349Z,1004.47
2019-03-10T03:08:19.322Z,1004.41
2019-03-10T03:09:19.322Z,1004.39
2019-03-10T03:10:19.325Z,1004.37
2019-03-10T03:11:19.276Z,1004.34
2019-03-10T03:12:19.284Z,1004.32
2019-03-10T03:13:19.350Z,1004.35
2019-03-10T03:14:19.248Z,1004.27
2019-03-10T03:15:19.264Z,1004.23
2019-03-10T03:16:19.236Z,1004.19
2019-03-10T03:17:19.208Z,1004.15
2019-03-10T03:18:19.213Z,1004.04
2019-03-10T03:19:19.225Z,1003.93
2019-03-10T03:20:19.222Z,1003.88
2019-03-10T03:21:19.200Z,1003.91
2019-03-10T03:22:19.175Z,1003.82
2019-03-10T03:23:19.165Z,1003.84
2019-03-10T03:24:19.175Z,1003.86
2019-03-10T03:25:19.205Z,1003.83
2019-03-10T03:26:19.125Z,1003.89
2019-03-10T03:27:19.122Z,1003.90
2019-03-10T03:28:19.117Z,1003.89
2019-03-10T03:29:19.140Z,1003.82
2019-03-10T03:30:19.142Z,1003.80
2019-03-10T03:31:19.083Z,1003.73
2019-03-10T03:32:19.062Z,1003.77
2019-03-10T03:33:19.095Z,1003.66
2019-03-10T03:34:19.089Z,1003.61
2019-03-10T03:35:19.072Z,1003.61
2019-03-10T03:36:19.036Z,1003.63
2019-03-10T03:37:19.001Z,1003.55
2019-03-10T03:38:18.989Z,1003.59
2019-03-10T03:39:18.971Z,1003.56
2019-03-10T03:40:18.955Z,1003.52
2019-03-10T03:41:19.112Z,1003.52
2019-03-10T03:42:18.989Z,1003.47
2019-03-10T03:43:18.957Z,1003.51
2019-03-10T03:44:18.939Z,1003.48
2019-03-10T03:45:18.902Z,1003.40
2019-03-10T03:46:18.947Z,1003.42
2019-03-10T03:47:18.917Z,1003.39
2019-03-10T03:48:18.898Z,1003.35
2019-03-10T03:49:18.870Z,1003.31
2019-03-10T03:50:18.854Z,1003.27
2019-03-10T03:51:18.871Z,1003.25
2019-03-10T03:52:18.822Z,1003.21
2019-03-10T03:53:18.833Z,1003.18
2019-03-10T03:54:18.821Z,1003.14
2019-03-10T03:55:18.857Z,1003.12
2019-03-10T03:56:18.814Z,1003.09
2019-03-10T03:57:18.770Z,1003.10
2019-03-10T03:58:18.770Z,1003.04
2019-03-10T03:59:18.823Z,1003.03
2019-03-10T04:00:18.749Z,1003.07
2019-03-10T04:01:18.750Z,1002.95
2019-03-10T04:02:18.731Z,1002.94
2019-03-10T04:03:18.710Z,1002.92
2019-03-10T04:04:18.715Z,1002.91
2019-03-10T04:05:18.693Z,1002.85
2019-03-10T04:06:18.696Z,1002.81
2019-03-10T04:07:18.657Z,1002.82
2019-03-10T04:08:18.684Z,1002.76
2019-03-10T04:09:18.702Z,1002.73
2019-03-10T04:10:18.684Z,1002.72
2019-03-10T04:11:18.644Z,1002.68
2019-03-10T04:12:18.629Z,1002.61
2019-03-10T04:13:18.613Z,1002.60
2019-03-10T04:14:18.585Z,1002.58
2019-03-10T04:15:18.580Z,1002.53
2019-03-10T04:16:18.650Z,1002.50
2019-03-10T04:17:18.570Z,1002.47
2019-03-10T04:18:18.537Z,1002.40
2019-03-10T04:19:18.527Z,1002.41
2019-03-10T04:20:18.515Z,1002.39
2019-03-10T04:21:18.543Z,1002.40
2019-03-10T04:22:18.500Z,1002.39
2019-03-10T04:23:18.497Z,1002.30
2019-03-10T04:24:18.484Z,1002.34
2019-03-10T04:25:18.478Z,1002.32
2019-03-10T04:26:18.526Z,1002.25
2019-03-10T04:27:18.440Z,1002.28
2019-03-10T04:28:18.429Z,1002.29
2019-03-10T04:29:18.429Z,1002.25
2019-03-10T04:30:18.406Z,1002.26
2019-03-10T04:31:18.432Z,1002.22
2019-03-10T04:32:18.392Z,1002.18
2019-03-10T04:33:18.382Z,1002.17
2019-03-10T04:34:18.422Z,1002.19
2019-03-10T04:35:18.404Z,1002.19
2019-03-10T04:36:18.351Z,1002.13
2019-03-10T04:37:18.381Z,1002.10
2019-03-10T04:38:18.333Z,1002.10
2019-03-10T04:39:18.318Z,1002.09
2019-03-10T04:40:18.313Z,1002.09
2019-03-10T04:41:18.284Z,1002.10
2019-03-10T04:42:18.312Z,1002.04
2019-03-10T04:43:18.271Z,1002.09
2019-03-10T04:44:18.321Z,1002.02
2019-03-10T04:45:18.243Z,1002.01
2019-03-10T04:46:18.246Z,1002.02
2019-03-10T04:47:18.281Z,1002.04
2019-03-10T04:48:18.237Z,1002.01
2019-03-10T04:49:18.212Z,1001.95
2019-03-10T04:50:18.190Z,1001.94
2019-03-10T04:51:18.175Z,1001.85
2019-03-10T04:52:18.167Z,1001.76
2019-03-10T04:53:18.191Z,1001.74
2019-03-10T04:54:18.148Z,1001.61
2019-03-10T04:55:18.162Z,1001.58
2019-03-10T04:56:18.211Z,1001.52
2019-03-10T04:57:18.119Z,1001.53
2019-03-10T04:58:18.149Z,1001.47
2019-03-10T04:59:18.106Z,1001.44
2019-03-10T05:00:18.083Z,1001.41
2019-03-10T05:01:18.211Z,1001.37
2019-03-10T05:02:18.070Z,1001.31
2019-03-10T05:03:18.073Z,1001.24
2019-03-10T05:04:18.049Z,1001.16
2019-03-10T05:05:18.029Z,1001.07
2019-03-10T05:06:18.024Z,1000.92
2019-03-10T05:07:18.002Z,1000.80
2019-03-10T05:08:18.082Z,1000.69
2019-03-10T05:09:18.010Z,1000.62
2019-03-10T05:10:18.002Z,1000.58
2019-03-10T05:11:17.956Z,1000.53
2019-03-10T05:12:17.949Z,1000.44
2019-03-10T05:13:18.016Z,1000.41
2019-03-10T05:14:18.009Z,1000.33
2019-03-10T05:15:17.940Z,1000.28
2019-03-10T05:16:17.900Z,1000.20
2019-03-10T05:17:18.006Z,1000.20
2019-03-10T05:18:17.906Z,1000.11
2019-03-10T05:19:17.916Z,1000.01
2019-03-10T05:20:17.854Z,1000.02
2019-03-10T05:21:17.864Z,999.94
2019-03-10T05:22:17.832Z,999.95
2019-03-10T05:23:17.830Z,999.91
2019-03-10T05:24:17.843Z,999.88
2019-03-10T05:25:17.902Z,999.87
2019-03-10T05:26:17.799Z,999.78
2019-03-10T05:27:17.780Z,999.77
2019-03-10T05:28:17.770Z,999.70
2019-03-10T05:29:17.863Z,999.66
2019-03-10T05:30:17.760Z,999.59
2019-03-10T05:31:17.742Z,999.51
2019-03-10T05:32:17.743Z,999.51
2019-03-10T05:33:17.769Z,999.44
2019-03-10T05:34:17.732Z,999.44
2019-03-10T05:35:17.692Z,999.43
2019-03-10T05:36:17.680Z,999.40
2019-03-10T05:37:17.742Z,999.34
2019-03-10T05:38:17.683Z,999.30
2019-03-10T05:39:17.670Z,999.29
2019-03-10T05:40:17.638Z,999.31
2019-03-10T05:41:17.694Z,999.26
2019-03-10T05:42:17.624Z,999.27
2019-03-10T05:43:17.656Z,999.23
2019-03-10T05:44:17.613Z,999.19
2019-03-10T05:45:17.582Z,999.15
2019-03-10T05:46:17.615Z,999.09
2019-03-10T05:47:17.565Z,999.11
2019-03-10T05:48:17.546Z,999.11
2019-03-10T05:49:17.617Z,999.10
2019-03-10T05:50:17.524Z,999.03
2019-03-10T05:51:17.522Z,999.03
2019-03-10T05:52:17.508Z,998.99
2019-03-10T05:53:17.500Z,998.94
2019-03-10T05:54:17.503Z,998.91
2019-03-10T05:55:17.517Z,998.78
2019-03-10T05:56:17.461Z,998.77
2019-03-10T05:57:17.471Z,998.74
2019-03-10T05:58:17.444Z,998.69
2019-03-10T05:59:17.478Z,998.68
2019-03-10T06:00:17.411Z,998.62
2019-03-10T06:01:17.419Z,998.68
2019-03-10T06:02:17.467Z,998.58
2019-03-10T06:03:17.420Z,998.55
2019-03-10T06:04:17.388Z,998.48
2019-03-10T06:05:17.391Z,998.42
2019-03-10T06:06:17.360Z,998.35
2019-03-10T06:07:17.359Z,998.28
2019-03-10T06:08:17.334Z,998.27
2019-03-10T06:09:17.319Z,998.23
2019-03-10T06:10:17.346Z,998.28
2019-03-10T06:11:17.289Z,998.27
2019-03-10T06:12:17.301Z,998.26
2019-03-10T06:13:17.273Z,998.24
2019-03-10T06:14:17.275Z,998.25
2019-03-10T06:15:17.297Z,998.23
2019-03-10T06:16:17.333Z,998.20
2019-03-10T06:17:17.224Z,998.19
2019-03-10T06:18:17.216Z,998.14
2019-03-10T06:19:17.217Z,998.16
2019-03-10T06:20:17.201Z,998.03
2019-03-10T06:21:17.322Z,998.06
2019-03-10T06:22:17.169Z,997.97
2019-03-10T06:23:17.168Z,997.88
2019-03-10T06:24:17.158Z,997.83
2019-03-10T06:25:17.161Z,997.83
2019-03-10T06:26:17.165Z,997.81
2019-03-10T06:27:17.120Z,997.79
2019-03-10T06:28:17.103Z,997.75
2019-03-10T06:29:17.148Z,997.72
2019-03-10T06:30:17.109Z,997.73
2019-03-10T06:31:17.129Z,997.68
2019-03-10T06:32:17.065Z,997.59
2019-03-10T06:33:17.059Z,997.54
2019-03-10T06:34:17.034Z,997.56
2019-03-10T06:35:17.028Z,997.45
2019-03-10T06:36:17.083Z,997.38
2019-03-10T06:37:17.032Z,997.36
2019-03-10T06:38:17.001Z,997.36
2019-03-10T06:39:17.011Z,997.32
2019-03-10T06:40:16.980Z,997.30
2019-03-10T06:41:16.959Z,997.31
2019-03-10T06:42:16.978Z,997.33
2019-03-10T06:43:16.939Z,997.40
2019-03-10T06:44:16.979Z,997.36
2019-03-10T06:45:16.947Z,997.36
2019-03-10T06:46:16.903Z,997.35
2019-03-10T06:47:16.956Z,997.27
2019-03-10T06:48:16.902Z,997.26
2019-03-10T06:49:16.877Z,997.18
2019-03-10T06:50:16.870Z,996.94
2019-03-10T06:51:16.911Z,997.02
2019-03-10T06:52:16.838Z,996.99
2019-03-10T06:53:16.865Z,996.99
2019-03-10T06:54:16.838Z,997.10
2019-03-10T06:55:16.820Z,996.88
2019-03-10T06:56:16.831Z,996.91
2019-03-10T06:57:16.782Z,996.95
2019-03-10T06:58:16.771Z,997.00
2019-03-10T06:59:16.782Z,996.84
2019-03-10T07:00:17.691Z,996.74
2019-03-10T07:01:16.780Z,996.73
2019-03-10T07:02:16.726Z,996.79
2019-03-10T07:03:16.720Z,996.73
2019-03-10T07:04:16.726Z,996.68
2019-03-10T07:05:16.699Z,996.55
2019-03-10T07:06:16.681Z,996.47
2019-03-10T07:07:16.721Z,996.54
2019-03-10T07:08:16.691Z,996.58
2019-03-10T07:09:16.702Z,996.55
2019-03-10T07:10:16.636Z,996.53
2019-03-10T07:11:16.669Z,996.56
2019-03-10T07:12:16.614Z,996.41
2019-03-10T07:13:16.607Z,996.44
2019-03-10T07:14:16.697Z,996.45
2019-03-10T07:15:16.588Z,996.44
2019-03-10T07:16:16.601Z,996.46
2019-03-10T07:17:16.606Z,996.45
2019-03-10T07:18:16.555Z,996.42
2019-03-10T07:19:16.568Z,996.38
2019-03-10T07:20:16.533Z,996.30
2019-03-10T07:21:16.518Z,996.30
2019-03-10T07:22:16.545Z,996.31
2019-03-10T07:23:16.500Z,996.30
2019-03-10T07:24:16.483Z,996.28
2019-03-10T07:25:16.505Z,996.25
2019-03-10T07:26:16.505Z,996.25
2019-03-10T07:27:16.452Z,996.22
2019-03-10T07:28:16.460Z,996.26
2019-03-10T07:29:16.436Z,996.23
2019-03-10T07:30:16.448Z,996.19
2019-03-10T07:31:16.425Z,996.18
2019-03-10T07:32:16.399Z,996.16
2019-03-10T07:33:16.388Z,996.20
2019-03-10T07:34:16.393Z,996.19
2019-03-10T07:35:16.397Z,996.11
2019-03-10T07:36:16.361Z,996.09
2019-03-10T07:37:16.343Z,996.01
2019-03-10T07:38:16.337Z,996.02
2019-03-10T07:39:16.329Z,996.01
2019-03-10T07:40:16.330Z,995.99
2019-03-10T07:41:16.373Z,995.98
2019-03-10T07:42:16.289Z,995.90
2019-03-10T07:43:16.279Z,995.98
2019-03-10T07:44:16.271Z,995.97
2019-03-10T07:45:16.317Z,995.99
2019-03-10T07:46:16.276Z,995.96
2019-03-10T07:47:16.241Z,995.96
2019-03-10T07:48:16.270Z,995.98
2019-03-10T07:49:18.075Z,995.92
2019-03-10T07:50:16.203Z,995.96
2019-03-10T07:51:16.192Z,995.96
2019-03-10T07:52:20.181Z,995.95
2019-03-10T07:53:16.170Z,995.90
2019-03-10T07:54:16.198Z,995.90
2019-03-10T07:55:16.149Z,995.85
2019-03-10T07:56:16.139Z,995.83
2019-03-10T07:57:16.158Z,995.82
2019-03-10T07:58:16.124Z,995.79
2019-03-10T07:59:16.106Z,995.84
2019-03-10T08:00:16.118Z,995.86
2019-03-10T08:01:16.089Z,995.74
2019-03-10T08:02:16.107Z,995.76
2019-03-10T08:03:16.068Z,995.75
2019-03-10T08:04:16.055Z,995.69
2019-03-10T08:05:16.052Z,995.60
2019-03-10T08:06:16.079Z,995.66
2019-03-10T08:07:16.018Z,995.67
2019-03-10T08:08:16.031Z,995.68
2019-03-10T08:09:15.995Z,995.70
2019-03-10T08:10:15.985Z,995.70
2019-03-10T08:11:15.982Z,995.71
2019-03-10T08:12:15.996Z,995.69
2019-03-10T08:13:15.988Z,995.68
2019-03-10T08:14:15.942Z,995.71
2019-03-10T08:15:15.931Z,995.71
2019-03-10T08:16:15.923Z,995.67
2019-03-10T08:17:15.907Z,995.69
2019-03-10T08:18:15.951Z,995.70
2019-03-10T08:19:15.892Z,995.67
2019-03-10T08:20:15.920Z,995.65
2019-03-10T08:21:15.868Z,995.68
2019-03-10T08:22:15.864Z,995.63
2019-03-10T08:23:15.871Z,995.59
2019-03-10T08:24:15.836Z,995.60
2019-03-10T08:25:15.826Z,995.56
2019-03-10T08:26:15.812Z,995.55
2019-03-10T08:27:15.818Z,995.52
2019-03-10T08:28:15.829Z,995.52
2019-03-10T08:29:15.794Z,995.50
2019-03-10T08:30:15.809Z,995.45
2019-03-10T08:31:15.758Z,995.46
2019-03-10T08:32:15.768Z,995.46
2019-03-10T08:33:15.798Z,995.46
2019-03-10T08:34:15.728Z,995.44
2019-03-10T08:35:15.733Z,995.42
2019-03-10T08:36:15.737Z,995.44
2019-03-10T08:37:15.706Z,995.44
2019-03-10T08:38:15.751Z,995.42
2019-03-10T08:39:15.701Z,995.49
2019-03-10T08:40:15.668Z,995.38
2019-03-10T08:41:15.686Z,995.42
2019-03-10T08:42:20.159Z,995.48
2019-03-10T08:43:16.632Z,995.50
2019-03-10T08:44:15.753Z,995.50
2019-03-10T08:45:15.607Z,995.47
2019-03-10T08:46:15.596Z,995.41
2019-03-10T08:47:15.630Z,995.45
2019-03-10T08:48:15.578Z,995.43
2019-03-10T08:49:15.571Z,995.48
2019-03-10T08:50:15.637Z,995.55
2019-03-10T08:51:15.542Z,995.52
2019-03-10T08:52:15.541Z,995.52
2019-03-10T08:53:15.573Z,995.50
2019-03-10T08:54:15.529Z,995.54
2019-03-10T08:55:15.560Z,995.58
2019-03-10T08:56:15.495Z,995.63
2019-03-10T08:57:15.566Z,995.68
2019-03-10T08:58:15.519Z,995.64
2019-03-10T08:59:15.505Z,995.65
2019-03-10T09:00:15.452Z,995.72
2019-03-10T09:01:15.491Z,995.56
2019-03-10T09:02:15.423Z,995.67
2019-03-10T09:03:15.417Z,995.63
2019-03-10T09:04:15.442Z,995.67
2019-03-10T09:05:15.417Z,995.60
2019-03-10T09:06:15.422Z,995.59
2019-03-10T09:07:15.368Z,995.54
2019-03-10T09:08:15.364Z,995.54
2019-03-10T09:09:15.373Z,995.56
2019-03-10T09:10:15.337Z,995.49
2019-03-10T09:11:15.366Z,995.56
2019-03-10T09:12:15.346Z,995.46
2019-03-10T09:13:15.352Z,995.43
2019-03-10T09:14:15.306Z,995.38
2019-03-10T09:15:15.283Z,995.53
2019-03-10T09:16:15.283Z,995.54
2019-03-10T09:17:15.288Z,995.52
2019-03-10T09:18:15.262Z,995.50
2019-03-10T09:19:15.254Z,995.55
2019-03-10T09:20:15.269Z,995.56
2019-03-10T09:21:15.218Z,995.55
2019-03-10T09:22:15.238Z,995.48
2019-03-10T09:23:15.210Z,995.56
2019-03-10T09:24:15.207Z,995.49
2019-03-10T09:25:15.231Z,995.50
2019-03-10T09:26:15.179Z,995.48
2019-03-10T09:27:15.262Z,995.53
2019-03-10T09:28:15.142Z,995.52
2019-03-10T09:29:15.131Z,995.59
2019-03-10T09:30:15.137Z,995.53
2019-03-10T09:31:15.115Z,995.44
2019-03-10T09:32:15.138Z,995.40
2019-03-10T09:33:15.117Z,995.45
2019-03-10T09:34:15.080Z,995.43
2019-03-10T09:35:15.081Z,995.38
2019-03-10T09:36:15.064Z,995.39
2019-03-10T09:37:15.068Z,995.28
2019-03-10T09:38:15.093Z,995.35
2019-03-10T09:39:15.033Z,995.37
2019-03-10T09:40:15.023Z,995.38
2019-03-10T09:41:15.013Z,995.37
2019-03-10T09:42:14.998Z,995.39
2019-03-10T09:43:15.028Z,995.23
2019-03-10T09:44:14.967Z,995.31
2019-03-10T09:45:14.992Z,995.31
2019-03-10T09:46:14.948Z,995.33
2019-03-10T09:47:14.940Z,995.14
2019-03-10T09:48:14.975Z,995.15
2019-03-10T09:49:14.915Z,995.14
2019-03-10T09:50:14.908Z,995.18
2019-03-10T09:51:14.906Z,995.08
2019-03-10T09:52:14.881Z,995.09
2019-03-10T09:53:14.920Z,995.06
2019-03-10T09:54:14.883Z,995.14
2019-03-10T09:55:14.847Z,994.93
2019-03-10T09:56:14.844Z,994.90
2019-03-10T09:57:14.828Z,995.10
2019-03-10T09:58:14.891Z,995.13
2019-03-10T09:59:14.914Z,995.00
2019-03-10T10:00:14.844Z,994.91
2019-03-10T10:01:14.788Z,994.93
2019-03-10T10:02:14.775Z,995.02
2019-03-10T10:03:14.772Z,995.02
2019-03-10T10:04:14.919Z,995.07
2019-03-10T10:05:14.743Z,995.03
2019-03-10T10:06:14.726Z,995.00
2019-03-10T10:07:14.738Z,995.03
2019-03-10T10:08:14.708Z,994.93
2019-03-10T10:09:14.744Z,995.06
2019-03-10T10:10:14.681Z,995.06
2019-03-10T10:11:14.672Z,994.95
2019-03-10T10:12:14.665Z,994.90
2019-03-10T10:13:14.662Z,994.84
2019-03-10T10:14:14.675Z,994.74
2019-03-10T10:15:14.638Z,994.80
2019-03-10T10:16:14.633Z,994.73
2019-03-10T10:17:14.631Z,994.80
2019-03-10T10:18:14.601Z,994.82
2019-03-10T10:19:14.703Z,994.98
2019-03-10T10:20:14.600Z,994.81
2019-03-10T10:21:14.563Z,994.89
2019-03-10T10:22:14.555Z,994.87
2019-03-10T10:23:14.560Z,994.85
2019-03-10T10:24:14.545Z,994.88
2019-03-10T10:25:14.547Z,994.81
2019-03-10T10:26:14.517Z,994.65
2019-03-10T10:27:14.502Z,994.70
2019-03-10T10:28:14.514Z,994.88
2019-03-10T10:29:14.476Z,994.73
2019-03-10T10:30:14.492Z,994.91
2019-03-10T10:31:14.454Z,994.96
2019-03-10T10:32:14.442Z,995.03
2019-03-10T10:33:14.433Z,995.03
2019-03-10T10:34:14.428Z,994.93
2019-03-10T10:35:14.443Z,994.86
2019-03-10T10:36:14.410Z,994.82
2019-03-10T10:37:14.396Z,994.94
2019-03-10T10:38:18.511Z,994.85
2019-03-10T10:39:14.376Z,994.90
2019-03-10T10:40:14.386Z,994.91
2019-03-10T10:41:14.361Z,994.82
2019-03-10T10:42:14.348Z,994.74
2019-03-10T10:43:14.348Z,994.97
2019-03-10T10:44:14.312Z,995.08
2019-03-10T10:45:14.331Z,994.97
2019-03-10T10:46:14.300Z,994.89
2019-03-10T10:47:14.286Z,994.92
2019-03-10T10:48:14.321Z,994.82
2019-03-10T10:49:14.263Z,994.89
2019-03-10T10:50:14.288Z,994.82
2019-03-10T10:51:14.246Z,994.83
2019-03-10T10:52:14.236Z,994.91
2019-03-10T10:53:14.240Z,994.85
2019-03-10T10:54:14.225Z,994.70
2019-03-10T10:55:14.214Z,994.63
2019-03-10T10:56:14.220Z,994.58
2019-03-10T10:57:14.201Z,994.65
2019-03-10T10:58:14.161Z,994.63
2019-03-10T10:59:14.155Z,994.57
2019-03-10T11:00:14.144Z,994.71
2019-03-10T11:01:14.192Z,994.59
2019-03-10T11:02:14.117Z,994.64
2019-03-10T11:03:14.113Z,994.51
2019-03-10T11:04:14.097Z,994.51
2019-03-10T11:05:14.086Z,994.58
2019-03-10T11:06:14.077Z,994.46
2019-03-10T11:07:14.092Z,994.62
2019-03-10T11:08:14.058Z,994.62
2019-03-10T11:09:14.051Z,994.50
2019-03-10T11:10:14.031Z,994.04
2019-03-10T11:11:14.026Z,994.43
2019-03-10T11:12:14.057Z,994.63
2019-03-10T11:13:13.997Z,994.36
2019-03-10T11:14:13.993Z,994.35
2019-03-10T11:15:13.978Z,994.44
2019-03-10T11:16:13.970Z,994.17
2019-03-10T11:17:13.955Z,994.44
2019-03-10T11:18:13.979Z,994.49
2019-03-10T11:19:13.935Z,994.34
2019-03-10T11:20:13.931Z,994.45
2019-03-10T11:21:13.955Z,994.41
2019-03-10T11:22:13.912Z,994.31
2019-03-10T11:23:13.901Z,994.43
2019-03-10T11:24:13.984Z,994.49
2019-03-10T11:25:13.867Z,994.51
2019-03-10T11:26:13.862Z,994.47
2019-03-10T11:27:13.991Z,994.41
2019-03-10T11:28:13.877Z,994.49
2019-03-10T11:29:13.933Z,994.26
2019-03-10T11:30:13.844Z,994.26
2019-03-10T11:31:14.086Z,994.45
2019-03-10T11:32:13.800Z,994.64
2019-03-10T11:33:13.782Z,994.24
2019-03-10T11:34:13.956Z,994.21
2019-03-10T11:35:13.766Z,994.47
2019-03-10T11:36:13.830Z,994.21
2019-03-10T11:37:13.736Z,994.40
2019-03-10T11:38:13.737Z,994.25
2019-03-10T11:39:13.735Z,994.19
2019-03-10T11:40:13.735Z,994.17
2019-03-10T11:41:13.697Z,994.06
2019-03-10T11:42:13.736Z,994.02
2019-03-10T11:43:13.674Z,994.21
2019-03-10T11:44:13.658Z,993.99
2019-03-10T11:45:13.647Z,993.88
2019-03-10T11:46:13.639Z,993.92
2019-03-10T11:47:13.634Z,994.07
2019-03-10T11:48:13.670Z,993.81
2019-03-10T11:49:13.611Z,993.97
2019-03-10T11:50:15.190Z,993.88
2019-03-10T11:51:13.634Z,994.10
2019-03-10T11:52:13.575Z,994.15
2019-03-10T11:53:19.162Z,994.01
2019-03-10T11:54:14.608Z,993.98
2019-03-10T11:55:13.701Z,993.91
2019-03-10T11:56:13.536Z,994.11
2019-03-10T11:57:13.517Z,994.33
2019-03-10T11:58:13.519Z,994.26
2019-03-10T11:59:13.513Z,994.11
2019-03-10T12:00:13.517Z,993.94
2019-03-10T12:01:13.474Z,994.04
2019-03-10T12:02:16.426Z,994.36
2019-03-10T12:03:13.458Z,994.12
2019-03-10T12:04:13.481Z,994.37
2019-03-10T12:05:13.505Z,994.07
2019-03-10T12:06:13.483Z,994.18
2019-03-10T12:07:13.406Z,994.23
2019-03-10T12:08:13.398Z,994.12
2019-03-10T12:09:13.445Z,994.23
2019-03-10T12:10:13.373Z,994.10
2019-03-10T12:11:13.361Z,994.22
2019-03-10T12:12:13.425Z,994.25
2019-03-10T12:13:13.403Z,994.16
2019-03-10T12:14:13.356Z,994.24
2019-03-10T12:15:13.337Z,994.27
2019-03-10T12:16:13.371Z,994.37
2019-03-10T12:17:13.320Z,994.32
2019-03-10T12:18:13.365Z,994.14